ESSP/NRK METAR and TAF weather

Enter ICAO airport designator
Station Type Date Time Source
ESSP METAR 2018/10/21 05:20 UTC NOAA

ESSP 210520Z 00000KT 9999 MIFG NSC 01/01 Q1021


Station Type Date Time Source
ESSP Decoded METAR 2018/10/21 05:20 UTC NOAA

Norrkoping, Sweden (ESSP) 58-35N 016-09E 0M
Oct 21, 2018 - 01:20 AM EDT / 2018.10.21 0520 UTC
Wind: Calm:0
Visibility: greater than 7 mile(s):0
Weather: shallow fog
Temperature: 33 F (1 C)
Dew Point: 33 F (1 C)
Relative Humidity: 100%
Pressure (altimeter): 30.15 in. Hg (1021 hPa)
ob: ESSP 210520Z 00000KT 9999 MIFG NSC 01/01 Q1021
cycle: 5

Station Type Date Time Source
ESSP TAF 2018/01/01 02:31 UTC NOAA

TAF ESSP 010130Z 0102/0206 16002KT 9999 BKN004 PROB40 0102/0106 4000 BR SCT004


Example: see airport list